SBI5261 UNNT-UEEE
Flight info
| Callsign | SBI5261 |
|---|---|
| Flight time | 3h 33m |
| Altitude | 33000 |
| Route | DIMID1K DIMID G828 NN A300 TOKMO B911 ENS W105 ERBOG W39 RUKOL/K0845F350 W39 GISUN W289 ABGUR ABGUR6D |
| Aircraft | A321/M-SDE3FGHIRWY/LB1 |
Departure
| Time | 2026-04-14 17:05 |
|---|---|
| Airport | Novosibirsk Tolmachevo Airport (UNNT) |
Arrival
| Time | 2026-04-14 20:39 |
|---|---|
| Airport | Platon Oyunsky Yakutsk International Airport (UEEE) |
| Time | Latitude | Longitude | Altitude | Speed | Heading |
|---|---|---|---|---|---|
| 2026-04-14 16:21 | 55.01031 | 82.67046 | 373 ft | 0 kts | 171° |
| 2026-04-14 16:55 | 55.01037 | 82.67045 | 373 ft | 4 kts | 172° |
| 2026-04-14 16:55 | 55.01064 | 82.67038 | 373 ft | 4 kts | 166° |
| 2026-04-14 16:55 | 55.01084 | 82.67023 | 373 ft | 4 kts | 104° |
| 2026-04-14 16:55 | 55.01085 | 82.67014 | 373 ft | 0 kts | 81° |
| 2026-04-14 16:59 | 55.01085 | 82.67015 | 373 ft | 0 kts | 81° |
| 2026-04-14 16:59 | 55.01087 | 82.67043 | 373 ft | 5 kts | 81° |
| 2026-04-14 16:59 | 55.01096 | 82.67146 | 373 ft | 12 kts | 81° |
| 2026-04-14 17:00 | 55.01108 | 82.67313 | 373 ft | 14 kts | 88° |
| 2026-04-14 17:00 | 55.01125 | 82.67461 | 373 ft | 12 kts | 51° |
| 2026-04-14 17:00 | 55.01189 | 82.67531 | 373 ft | 10 kts | 30° |
| 2026-04-14 17:00 | 55.01243 | 82.67587 | 373 ft | 8 kts | 30° |
| 2026-04-14 17:01 | 55.01288 | 82.67633 | 373 ft | 7 kts | 30° |
| 2026-04-14 17:01 | 55.01322 | 82.67668 | 373 ft | 5 kts | 30° |
| 2026-04-14 17:01 | 55.01349 | 82.67695 | 372 ft | 5 kts | 30° |
| 2026-04-14 17:01 | 55.01402 | 82.67751 | 372 ft | 14 kts | 31° |
| 2026-04-14 17:02 | 55.01490 | 82.67770 | 371 ft | 9 kts | 304° |
| 2026-04-14 17:02 | 55.01486 | 82.67720 | 371 ft | 3 kts | 257° |
| 2026-04-14 17:02 | 55.01486 | 82.67719 | 371 ft | 0 kts | 257° |
| 2026-04-14 17:04 | 55.01480 | 82.67672 | 371 ft | 24 kts | 257° |
| 2026-04-14 17:04 | 55.01409 | 82.66924 | 375 ft | 98 kts | 261° |
| 2026-04-14 17:05 | 55.01274 | 82.65400 | 373 ft | 154 kts | 261° |
| 2026-04-14 17:05 | 55.01083 | 82.63400 | 782 ft | 167 kts | 258° |
| 2026-04-14 17:05 | 55.00892 | 82.61401 | 1543 ft | 168 kts | 258° |
| 2026-04-14 17:05 | 55.00707 | 82.59396 | 2158 ft | 169 kts | 259° |
| 2026-04-14 17:06 | 55.00515 | 82.57260 | 2347 ft | 189 kts | 259° |
| 2026-04-14 17:06 | 55.00307 | 82.54918 | 2678 ft | 199 kts | 260° |
| 2026-04-14 17:06 | 55.00314 | 82.52472 | 2940 ft | 215 kts | 287° |
| 2026-04-14 17:06 | 55.01184 | 82.50188 | 3094 ft | 241 kts | 311° |
| 2026-04-14 17:07 | 55.02449 | 82.48136 | 3637 ft | 251 kts | 317° |
| 2026-04-14 17:07 | 55.03803 | 82.46180 | 4424 ft | 253 kts | 318° |
| 2026-04-14 17:07 | 55.05158 | 82.44227 | 5242 ft | 252 kts | 317° |
| 2026-04-14 17:07 | 55.06484 | 82.42256 | 5832 ft | 256 kts | 317° |
| 2026-04-14 17:08 | 55.07814 | 82.40209 | 5959 ft | 254 kts | 316° |
| 2026-04-14 17:08 | 55.09141 | 82.38111 | 5982 ft | 253 kts | 315° |
| 2026-04-14 17:08 | 55.10418 | 82.36052 | 5980 ft | 253 kts | 315° |
| 2026-04-14 17:08 | 55.11707 | 82.33955 | 5976 ft | 253 kts | 315° |
| 2026-04-14 17:09 | 55.12991 | 82.31858 | 5982 ft | 253 kts | 315° |
| 2026-04-14 17:09 | 55.14277 | 82.29756 | 5977 ft | 253 kts | 315° |
| 2026-04-14 17:09 | 55.15562 | 82.27647 | 5979 ft | 253 kts | 315° |
| 2026-04-14 17:09 | 55.16841 | 82.25539 | 5980 ft | 253 kts | 315° |
| 2026-04-14 17:10 | 55.18121 | 82.23425 | 5975 ft | 253 kts | 315° |
| 2026-04-14 17:10 | 55.19407 | 82.21306 | 5978 ft | 253 kts | 315° |
| 2026-04-14 17:10 | 55.20737 | 82.19298 | 5978 ft | 254 kts | 324° |
| 2026-04-14 17:10 | 55.22327 | 82.17900 | 5983 ft | 259 kts | 340° |
| 2026-04-14 17:11 | 55.24116 | 82.17315 | 6628 ft | 263 kts | 352° |
| 2026-04-14 17:11 | 55.25944 | 82.17029 | 7379 ft | 264 kts | 352° |
| 2026-04-14 17:11 | 55.27770 | 82.16723 | 8093 ft | 265 kts | 352° |
| 2026-04-14 17:11 | 55.29617 | 82.16405 | 8768 ft | 267 kts | 352° |
| 2026-04-14 17:12 | 55.31473 | 82.16088 | 9462 ft | 269 kts | 352° |
| 2026-04-14 17:12 | 55.33341 | 82.15771 | 10135 ft | 270 kts | 352° |
| 2026-04-14 17:12 | 55.35253 | 82.15625 | 10450 ft | 286 kts | 2° |
| 2026-04-14 17:12 | 55.37275 | 82.16341 | 10585 ft | 308 kts | 17° |
| 2026-04-14 17:13 | 55.39253 | 82.18082 | 10725 ft | 330 kts | 32° |
| 2026-04-14 17:13 | 55.40993 | 82.20882 | 10853 ft | 350 kts | 49° |
| 2026-04-14 17:13 | 55.42265 | 82.24672 | 10995 ft | 370 kts | 66° |
| 2026-04-14 17:13 | 55.42939 | 82.29130 | 11298 ft | 381 kts | 75° |
| 2026-04-14 17:14 | 55.43519 | 82.33701 | 11780 ft | 384 kts | 75° |
| 2026-04-14 17:14 | 55.44108 | 82.38305 | 12285 ft | 386 kts | 75° |
| 2026-04-14 17:14 | 55.44704 | 82.42928 | 12792 ft | 389 kts | 75° |
| 2026-04-14 17:14 | 55.45307 | 82.47587 | 13296 ft | 391 kts | 75° |
| 2026-04-14 17:15 | 55.45913 | 82.52264 | 13776 ft | 393 kts | 75° |
| 2026-04-14 17:15 | 55.46721 | 82.56873 | 14178 ft | 393 kts | 63° |
| 2026-04-14 17:15 | 55.48112 | 82.60999 | 14545 ft | 392 kts | 49° |
| 2026-04-14 17:15 | 55.50012 | 82.64406 | 14896 ft | 390 kts | 36° |
| 2026-04-14 17:16 | 55.52314 | 82.66903 | 15239 ft | 389 kts | 21° |
| 2026-04-14 17:16 | 55.54881 | 82.68358 | 15587 ft | 388 kts | 8° |
| 2026-04-14 17:16 | 55.57560 | 82.68742 | 15953 ft | 387 kts | 359° |
| 2026-04-14 17:16 | 55.60256 | 82.68824 | 16343 ft | 388 kts | 359° |
| 2026-04-14 17:17 | 55.62962 | 82.68910 | 16720 ft | 390 kts | 359° |
| 2026-04-14 17:17 | 55.65690 | 82.68997 | 17101 ft | 392 kts | 359° |
| 2026-04-14 17:17 | 55.68426 | 82.69085 | 17474 ft | 394 kts | 359° |
| 2026-04-14 17:17 | 55.71184 | 82.69175 | 17861 ft | 396 kts | 359° |
| 2026-04-14 17:18 | 55.73949 | 82.69264 | 18277 ft | 398 kts | 358° |
| 2026-04-14 17:18 | 55.76691 | 82.69353 | 18646 ft | 400 kts | 358° |
| 2026-04-14 17:18 | 55.79483 | 82.69443 | 18989 ft | 402 kts | 358° |
| 2026-04-14 17:18 | 55.82293 | 82.69534 | 19347 ft | 404 kts | 358° |
| 2026-04-14 17:19 | 55.85111 | 82.69623 | 19745 ft | 405 kts | 358° |
| 2026-04-14 17:19 | 55.87932 | 82.69711 | 20122 ft | 407 kts | 358° |
| 2026-04-14 17:19 | 55.90771 | 82.69801 | 20475 ft | 408 kts | 358° |
| 2026-04-14 17:19 | 55.93615 | 82.69898 | 20825 ft | 410 kts | 358° |
| 2026-04-14 17:20 | 55.96483 | 82.69996 | 21178 ft | 412 kts | 358° |
| 2026-04-14 17:20 | 55.98382 | 82.70104 | 21390 ft | 414 kts | 1° |
| 2026-04-14 17:20 | 56.01230 | 82.71141 | 21698 ft | 423 kts | 15° |
| 2026-04-14 17:20 | 56.03904 | 82.73444 | 22011 ft | 433 kts | 29° |
| 2026-04-14 17:21 | 56.06233 | 82.76942 | 22309 ft | 443 kts | 44° |
| 2026-04-14 17:21 | 56.08039 | 82.81476 | 22588 ft | 453 kts | 59° |
| 2026-04-14 17:21 | 56.09167 | 82.86799 | 22874 ft | 462 kts | 73° |
| 2026-04-14 17:21 | 56.09917 | 82.92428 | 23161 ft | 465 kts | 73° |
| 2026-04-14 17:22 | 56.10645 | 82.98082 | 23446 ft | 468 kts | 74° |
| 2026-04-14 17:22 | 56.11366 | 83.03794 | 23724 ft | 471 kts | 74° |
| 2026-04-14 17:22 | 56.12086 | 83.09540 | 23976 ft | 473 kts | 74° |
| 2026-04-14 17:22 | 56.12807 | 83.15291 | 24240 ft | 474 kts | 73° |
| 2026-04-14 17:23 | 56.13534 | 83.21063 | 24476 ft | 476 kts | 73° |
| 2026-04-14 17:23 | 56.14269 | 83.26878 | 24706 ft | 478 kts | 73° |
| 2026-04-14 17:23 | 56.15004 | 83.32700 | 24930 ft | 479 kts | 73° |
| 2026-04-14 17:23 | 56.15745 | 83.38543 | 25148 ft | 480 kts | 73° |
| 2026-04-14 17:24 | 56.16508 | 83.44394 | 25353 ft | 481 kts | 72° |
| 2026-04-14 17:24 | 56.17289 | 83.50240 | 25553 ft | 482 kts | 72° |
| 2026-04-14 17:24 | 56.18078 | 83.56095 | 25805 ft | 482 kts | 72° |
| 2026-04-14 17:24 | 56.18857 | 83.61872 | 26085 ft | 481 kts | 72° |
| 2026-04-14 17:25 | 56.19649 | 83.67781 | 26375 ft | 480 kts | 72° |
| 2026-04-14 17:25 | 56.20408 | 83.73537 | 26627 ft | 479 kts | 72° |
| 2026-04-14 17:25 | 56.21163 | 83.79356 | 26889 ft | 479 kts | 72° |
| 2026-04-14 17:25 | 56.21912 | 83.85171 | 27163 ft | 478 kts | 71° |
| 2026-04-14 17:26 | 56.22658 | 83.90980 | 27422 ft | 477 kts | 71° |
| 2026-04-14 17:26 | 56.23404 | 83.96814 | 27685 ft | 476 kts | 71° |
| 2026-04-14 17:26 | 56.24142 | 84.02611 | 27943 ft | 476 kts | 71° |
| 2026-04-14 17:26 | 56.24871 | 84.08395 | 28201 ft | 475 kts | 71° |
| 2026-04-14 17:27 | 56.25595 | 84.14196 | 28457 ft | 474 kts | 71° |
| 2026-04-14 17:27 | 56.26312 | 84.19985 | 28706 ft | 474 kts | 71° |
| 2026-04-14 17:27 | 56.27022 | 84.25769 | 28973 ft | 473 kts | 71° |
| 2026-04-14 17:27 | 56.27732 | 84.31553 | 29206 ft | 473 kts | 71° |
| 2026-04-14 17:28 | 56.28440 | 84.37344 | 29427 ft | 473 kts | 71° |
| 2026-04-14 17:28 | 56.29149 | 84.43140 | 29662 ft | 473 kts | 71° |
| 2026-04-14 17:28 | 56.29856 | 84.48909 | 29925 ft | 472 kts | 71° |
| 2026-04-14 17:28 | 56.30560 | 84.54675 | 30147 ft | 471 kts | 71° |
| 2026-04-14 17:29 | 56.31260 | 84.60442 | 30339 ft | 471 kts | 71° |
| 2026-04-14 17:29 | 56.31953 | 84.66222 | 30506 ft | 471 kts | 71° |
| 2026-04-14 17:29 | 56.32639 | 84.71995 | 30665 ft | 471 kts | 71° |
| 2026-04-14 17:29 | 56.33322 | 84.77766 | 30826 ft | 471 kts | 71° |
| 2026-04-14 17:30 | 56.34009 | 84.83549 | 31036 ft | 471 kts | 72° |
| 2026-04-14 17:30 | 56.34695 | 84.89326 | 31162 ft | 472 kts | 72° |
| 2026-04-14 17:30 | 56.35380 | 84.95110 | 31305 ft | 473 kts | 72° |
| 2026-04-14 17:30 | 56.36065 | 85.00939 | 31465 ft | 473 kts | 72° |
| 2026-04-14 17:31 | 56.36740 | 85.06748 | 31614 ft | 473 kts | 72° |
| 2026-04-14 17:31 | 56.37401 | 85.12477 | 31790 ft | 473 kts | 72° |
| 2026-04-14 17:31 | 56.38201 | 85.18215 | 31945 ft | 468 kts | 65° |
| 2026-04-14 17:31 | 56.39409 | 85.23618 | 32102 ft | 461 kts | 57° |
| 2026-04-14 17:32 | 56.40990 | 85.28603 | 32241 ft | 455 kts | 51° |
| 2026-04-14 17:32 | 56.42682 | 85.33443 | 32411 ft | 456 kts | 51° |
| 2026-04-14 17:32 | 56.44368 | 85.38307 | 32563 ft | 456 kts | 52° |
| 2026-04-14 17:32 | 56.46043 | 85.43174 | 32742 ft | 457 kts | 52° |
| 2026-04-14 17:33 | 56.47717 | 85.48062 | 32876 ft | 457 kts | 52° |
| 2026-04-14 17:33 | 56.49390 | 85.52963 | 33025 ft | 458 kts | 52° |
| 2026-04-14 17:33 | 56.51063 | 85.57878 | 33150 ft | 458 kts | 52° |
| 2026-04-14 17:34 | 56.54425 | 85.67747 | 33172 ft | 461 kts | 52° |
| 2026-04-14 17:34 | 56.57792 | 85.77654 | 33165 ft | 461 kts | 52° |
| 2026-04-14 17:35 | 56.61161 | 85.87585 | 33172 ft | 462 kts | 52° |
| 2026-04-14 17:35 | 56.64502 | 85.97485 | 33168 ft | 463 kts | 53° |
| 2026-04-14 17:36 | 56.67855 | 86.07453 | 33166 ft | 463 kts | 53° |
| 2026-04-14 17:36 | 56.71210 | 86.17465 | 33163 ft | 463 kts | 53° |
| 2026-04-14 17:37 | 56.74565 | 86.27505 | 33165 ft | 463 kts | 53° |
| 2026-04-14 17:37 | 56.77907 | 86.37546 | 33168 ft | 464 kts | 53° |
| 2026-04-14 17:38 | 56.81249 | 86.47645 | 33198 ft | 464 kts | 53° |
| 2026-04-14 17:38 | 56.84575 | 86.57735 | 33203 ft | 464 kts | 53° |
| 2026-04-14 17:39 | 56.87905 | 86.67837 | 33191 ft | 464 kts | 54° |
| 2026-04-14 17:39 | 56.91229 | 86.77977 | 33190 ft | 465 kts | 54° |
| 2026-04-14 17:40 | 56.94544 | 86.88170 | 33187 ft | 465 kts | 54° |
| 2026-04-14 17:40 | 56.97843 | 86.98378 | 33190 ft | 465 kts | 54° |
| 2026-04-14 17:41 | 57.01132 | 87.08590 | 33217 ft | 466 kts | 54° |
| 2026-04-14 17:41 | 57.04406 | 87.18785 | 33204 ft | 466 kts | 54° |
| 2026-04-14 17:42 | 57.07693 | 87.29062 | 33196 ft | 467 kts | 54° |
| 2026-04-14 17:42 | 57.10993 | 87.39440 | 33219 ft | 467 kts | 55° |
| 2026-04-14 17:43 | 57.14248 | 87.49736 | 33207 ft | 467 kts | 55° |
| 2026-04-14 17:43 | 57.17505 | 87.60102 | 33205 ft | 467 kts | 55° |
| 2026-04-14 17:44 | 57.20754 | 87.70462 | 33230 ft | 467 kts | 55° |
| 2026-04-14 17:44 | 57.23984 | 87.80784 | 33222 ft | 467 kts | 55° |
| 2026-04-14 17:45 | 57.27231 | 87.91207 | 33213 ft | 468 kts | 55° |
| 2026-04-14 17:45 | 57.30473 | 88.01659 | 33210 ft | 468 kts | 56° |
| 2026-04-14 17:46 | 57.33681 | 88.12094 | 33209 ft | 468 kts | 56° |
| 2026-04-14 17:46 | 57.36900 | 88.22620 | 33257 ft | 468 kts | 56° |
| 2026-04-14 17:47 | 57.40093 | 88.33127 | 33192 ft | 467 kts | 56° |
| 2026-04-14 17:47 | 57.43260 | 88.43635 | 33193 ft | 467 kts | 56° |
| 2026-04-14 17:48 | 57.46417 | 88.54129 | 33197 ft | 468 kts | 56° |
| 2026-04-14 17:48 | 57.49586 | 88.64708 | 33200 ft | 468 kts | 56° |
| 2026-04-14 17:49 | 57.52741 | 88.75312 | 33204 ft | 468 kts | 56° |
| 2026-04-14 17:49 | 57.55906 | 88.85948 | 33228 ft | 468 kts | 57° |
| 2026-04-14 17:50 | 57.59048 | 88.96584 | 33219 ft | 469 kts | 57° |
| 2026-04-14 17:50 | 57.62163 | 89.07207 | 33214 ft | 469 kts | 57° |
| 2026-04-14 17:51 | 57.65285 | 89.17906 | 33232 ft | 469 kts | 57° |
| 2026-04-14 17:51 | 57.68404 | 89.28608 | 33225 ft | 468 kts | 57° |
| 2026-04-14 17:52 | 57.71514 | 89.39327 | 33218 ft | 468 kts | 57° |
| 2026-04-14 17:52 | 57.74606 | 89.49970 | 33215 ft | 467 kts | 57° |
| 2026-04-14 17:53 | 57.77729 | 89.60675 | 33206 ft | 467 kts | 57° |
| 2026-04-14 17:53 | 57.80848 | 89.71389 | 33206 ft | 467 kts | 57° |
| 2026-04-14 17:54 | 57.83919 | 89.82064 | 33202 ft | 467 kts | 57° |
| 2026-04-14 17:54 | 57.86992 | 89.92822 | 33206 ft | 467 kts | 57° |
| 2026-04-14 17:55 | 57.90064 | 90.03605 | 33219 ft | 467 kts | 58° |
| 2026-04-14 17:55 | 57.93114 | 90.14339 | 33230 ft | 467 kts | 58° |
| 2026-04-14 17:56 | 57.96169 | 90.25134 | 33219 ft | 467 kts | 58° |
| 2026-04-14 17:56 | 57.99212 | 90.35964 | 33211 ft | 467 kts | 58° |
| 2026-04-14 17:57 | 58.02239 | 90.46797 | 33207 ft | 467 kts | 58° |
| 2026-04-14 17:57 | 58.05268 | 90.57649 | 33203 ft | 467 kts | 58° |
| 2026-04-14 17:58 | 58.08282 | 90.68511 | 33217 ft | 467 kts | 58° |
| 2026-04-14 17:58 | 58.11297 | 90.79432 | 33208 ft | 467 kts | 58° |
| 2026-04-14 17:59 | 58.14279 | 90.90277 | 33202 ft | 467 kts | 59° |
| 2026-04-14 17:59 | 58.17265 | 91.01204 | 33196 ft | 467 kts | 59° |
| 2026-04-14 18:00 | 58.20241 | 91.12150 | 33210 ft | 467 kts | 59° |
| 2026-04-14 18:00 | 58.24690 | 91.28627 | 33225 ft | 467 kts | 59° |
| 2026-04-14 18:01 | 58.27147 | 91.37782 | 33213 ft | 467 kts | 59° |
| 2026-04-14 18:01 | 58.30094 | 91.48782 | 33206 ft | 467 kts | 59° |
| 2026-04-14 18:02 | 58.33028 | 91.59761 | 33202 ft | 467 kts | 59° |
| 2026-04-14 18:02 | 58.35960 | 91.70797 | 33199 ft | 467 kts | 59° |
| 2026-04-14 18:03 | 58.38865 | 91.81817 | 33193 ft | 467 kts | 60° |
| 2026-04-14 18:03 | 58.41777 | 91.92934 | 33195 ft | 467 kts | 60° |
| 2026-04-14 18:04 | 58.44678 | 92.04046 | 33186 ft | 468 kts | 60° |
| 2026-04-14 18:04 | 58.47563 | 92.15210 | 33210 ft | 468 kts | 61° |
| 2026-04-14 18:05 | 58.50264 | 92.26442 | 33204 ft | 468 kts | 63° |
| 2026-04-14 18:05 | 58.52902 | 92.37868 | 33186 ft | 468 kts | 63° |
| 2026-04-14 18:06 | 58.55538 | 92.49254 | 33187 ft | 468 kts | 63° |
| 2026-04-14 18:06 | 58.58204 | 92.60649 | 33203 ft | 468 kts | 63° |
| 2026-04-14 18:07 | 58.60868 | 92.72047 | 33194 ft | 468 kts | 63° |
| 2026-04-14 18:07 | 58.63509 | 92.83481 | 33197 ft | 469 kts | 63° |
| 2026-04-14 18:08 | 58.66127 | 92.94878 | 33191 ft | 469 kts | 63° |
| 2026-04-14 18:08 | 58.68756 | 93.06368 | 33204 ft | 469 kts | 63° |
| 2026-04-14 18:09 | 58.71362 | 93.17849 | 33211 ft | 469 kts | 64° |
| 2026-04-14 18:09 | 58.73975 | 93.29395 | 33221 ft | 469 kts | 64° |
| 2026-04-14 18:10 | 58.76560 | 93.40847 | 33208 ft | 468 kts | 64° |
| 2026-04-14 18:10 | 58.79141 | 93.52394 | 33205 ft | 468 kts | 64° |
| 2026-04-14 18:11 | 58.81710 | 93.63952 | 33205 ft | 468 kts | 64° |
| 2026-04-14 18:11 | 58.84257 | 93.75470 | 33201 ft | 468 kts | 64° |
| 2026-04-14 18:12 | 58.86810 | 93.87060 | 33203 ft | 469 kts | 64° |
| 2026-04-14 18:12 | 58.89345 | 93.98662 | 33202 ft | 469 kts | 65° |
| 2026-04-14 18:13 | 58.91864 | 94.10235 | 33199 ft | 469 kts | 65° |
| 2026-04-14 18:13 | 58.94393 | 94.21871 | 33197 ft | 468 kts | 65° |
| 2026-04-14 18:14 | 58.96902 | 94.33531 | 33203 ft | 468 kts | 65° |
| 2026-04-14 18:14 | 58.99402 | 94.45210 | 33207 ft | 468 kts | 65° |
| 2026-04-14 18:15 | 59.01870 | 94.56837 | 33197 ft | 468 kts | 65° |
| 2026-04-14 18:15 | 59.04347 | 94.68548 | 33194 ft | 468 kts | 65° |
| 2026-04-14 18:16 | 59.06820 | 94.80254 | 33197 ft | 468 kts | 65° |
| 2026-04-14 18:16 | 59.09278 | 94.92002 | 33189 ft | 468 kts | 66° |
| 2026-04-14 18:17 | 59.11718 | 95.03767 | 33186 ft | 468 kts | 66° |
| 2026-04-14 18:17 | 59.14152 | 95.15537 | 33184 ft | 468 kts | 66° |
| 2026-04-14 18:18 | 59.16584 | 95.27336 | 33183 ft | 468 kts | 66° |
| 2026-04-14 18:18 | 59.18987 | 95.39056 | 33182 ft | 469 kts | 66° |
| 2026-04-14 18:19 | 59.21401 | 95.50923 | 33178 ft | 469 kts | 66° |
| 2026-04-14 18:19 | 59.23787 | 95.62773 | 33177 ft | 468 kts | 66° |
| 2026-04-14 18:20 | 59.26159 | 95.74627 | 33176 ft | 468 kts | 66° |
| 2026-04-14 18:20 | 59.28529 | 95.86497 | 33172 ft | 468 kts | 66° |
| 2026-04-14 18:21 | 59.30865 | 95.98295 | 33166 ft | 468 kts | 67° |
| 2026-04-14 18:21 | 59.33210 | 96.10208 | 33162 ft | 468 kts | 67° |
| 2026-04-14 18:22 | 59.35539 | 96.22110 | 33154 ft | 467 kts | 67° |
| 2026-04-14 18:22 | 59.37863 | 96.34067 | 33151 ft | 468 kts | 67° |
| 2026-04-14 18:23 | 59.40147 | 96.45920 | 33162 ft | 468 kts | 67° |
| 2026-04-14 18:23 | 59.42445 | 96.57900 | 33161 ft | 468 kts | 68° |
| 2026-04-14 18:24 | 59.44734 | 96.69910 | 33184 ft | 468 kts | 68° |
| 2026-04-14 18:24 | 59.47004 | 96.81854 | 33170 ft | 468 kts | 68° |
| 2026-04-14 18:25 | 59.49273 | 96.93884 | 33169 ft | 468 kts | 68° |
| 2026-04-14 18:25 | 59.51539 | 97.05928 | 33169 ft | 469 kts | 68° |
| 2026-04-14 18:26 | 59.53795 | 97.17978 | 33167 ft | 469 kts | 68° |
| 2026-04-14 18:26 | 59.56023 | 97.30056 | 33167 ft | 468 kts | 68° |
| 2026-04-14 18:27 | 59.58233 | 97.42162 | 33166 ft | 468 kts | 68° |
| 2026-04-14 18:27 | 59.60442 | 97.54265 | 33164 ft | 468 kts | 68° |
| 2026-04-14 18:28 | 59.62625 | 97.66290 | 33159 ft | 468 kts | 69° |
| 2026-04-14 18:28 | 59.64818 | 97.78423 | 33158 ft | 468 kts | 69° |
| 2026-04-14 18:29 | 59.66998 | 97.90575 | 33176 ft | 468 kts | 69° |
| 2026-04-14 18:29 | 59.69161 | 98.02724 | 33170 ft | 468 kts | 69° |
| 2026-04-14 18:30 | 59.71311 | 98.14865 | 33160 ft | 467 kts | 69° |
| 2026-04-14 18:30 | 59.73441 | 98.26968 | 33158 ft | 467 kts | 69° |
| 2026-04-14 18:31 | 59.75567 | 98.39154 | 33158 ft | 467 kts | 69° |
| 2026-04-14 18:31 | 59.77682 | 98.51346 | 33150 ft | 467 kts | 69° |
| 2026-04-14 18:32 | 59.79790 | 98.63583 | 33156 ft | 467 kts | 70° |
| 2026-04-14 18:32 | 59.81866 | 98.75727 | 33154 ft | 466 kts | 70° |
| 2026-04-14 18:33 | 59.83948 | 98.87931 | 33151 ft | 466 kts | 70° |
| 2026-04-14 18:34 | 59.88065 | 99.12407 | 33152 ft | 466 kts | 70° |
| 2026-04-14 18:34 | 59.90110 | 99.24691 | 33146 ft | 466 kts | 70° |
| 2026-04-14 18:35 | 59.92133 | 99.36885 | 33145 ft | 466 kts | 70° |
| 2026-04-14 18:35 | 59.94149 | 99.49175 | 33145 ft | 466 kts | 70° |
| 2026-04-14 18:36 | 59.96152 | 99.61463 | 33137 ft | 466 kts | 70° |
| 2026-04-14 18:36 | 59.98155 | 99.73788 | 33136 ft | 466 kts | 70° |
| 2026-04-14 18:37 | 60.00144 | 99.86094 | 33130 ft | 466 kts | 71° |
| 2026-04-14 18:37 | 60.02118 | 99.98435 | 33133 ft | 466 kts | 71° |
| 2026-04-14 18:38 | 60.04079 | 100.10804 | 33131 ft | 466 kts | 71° |
| 2026-04-14 18:38 | 60.06022 | 100.23150 | 33127 ft | 466 kts | 71° |
| 2026-04-14 18:39 | 60.07960 | 100.35514 | 33137 ft | 465 kts | 71° |
| 2026-04-14 18:39 | 60.09888 | 100.47882 | 33127 ft | 465 kts | 71° |
| 2026-04-14 18:40 | 60.11801 | 100.60267 | 33120 ft | 465 kts | 71° |
| 2026-04-14 18:40 | 60.13689 | 100.72656 | 33123 ft | 465 kts | 72° |
| 2026-04-14 18:41 | 60.15571 | 100.85066 | 33117 ft | 464 kts | 72° |
| 2026-04-14 18:41 | 60.17451 | 100.97473 | 33120 ft | 464 kts | 72° |
| 2026-04-14 18:42 | 60.19319 | 101.09878 | 33106 ft | 464 kts | 72° |
| 2026-04-14 18:42 | 60.21154 | 101.22231 | 33109 ft | 464 kts | 72° |
| 2026-04-14 18:43 | 60.22997 | 101.34757 | 33103 ft | 464 kts | 72° |
| 2026-04-14 18:43 | 60.24810 | 101.47130 | 33108 ft | 464 kts | 72° |
| 2026-04-14 18:44 | 60.26618 | 101.59588 | 33109 ft | 464 kts | 72° |
| 2026-04-14 18:44 | 60.28136 | 101.70035 | 33105 ft | 464 kts | 72° |
| 2026-04-14 18:45 | 60.29954 | 101.82507 | 33100 ft | 464 kts | 72° |
| 2026-04-14 18:45 | 60.31764 | 101.94992 | 33099 ft | 464 kts | 72° |
| 2026-04-14 18:46 | 60.33540 | 102.07428 | 33101 ft | 464 kts | 73° |
| 2026-04-14 18:46 | 60.35303 | 102.19954 | 33102 ft | 464 kts | 73° |
| 2026-04-14 18:47 | 60.37092 | 102.32477 | 33107 ft | 464 kts | 71° |
| 2026-04-14 18:47 | 60.39246 | 102.44819 | 33105 ft | 463 kts | 68° |
| 2026-04-14 18:48 | 60.41576 | 102.56949 | 33101 ft | 463 kts | 67° |
| 2026-04-14 18:48 | 60.43840 | 102.69059 | 33098 ft | 463 kts | 68° |
| 2026-04-14 18:49 | 60.46026 | 102.81312 | 33107 ft | 463 kts | 69° |
| 2026-04-14 18:49 | 60.48182 | 102.93585 | 33100 ft | 462 kts | 69° |
| 2026-04-14 18:50 | 60.50345 | 103.05859 | 33097 ft | 462 kts | 69° |
| 2026-04-14 18:50 | 60.52513 | 103.18156 | 33093 ft | 462 kts | 69° |
| 2026-04-14 18:51 | 60.54667 | 103.30436 | 33088 ft | 462 kts | 69° |
| 2026-04-14 18:51 | 60.56805 | 103.42740 | 33086 ft | 462 kts | 69° |
| 2026-04-14 18:52 | 60.58927 | 103.55077 | 33093 ft | 462 kts | 69° |
| 2026-04-14 18:52 | 60.61045 | 103.67441 | 33097 ft | 462 kts | 69° |
| 2026-04-14 18:53 | 60.63152 | 103.79801 | 33105 ft | 461 kts | 70° |
| 2026-04-14 18:53 | 60.65239 | 103.92160 | 33100 ft | 461 kts | 70° |
| 2026-04-14 18:54 | 60.67310 | 104.04532 | 33094 ft | 461 kts | 70° |
| 2026-04-14 18:54 | 60.69372 | 104.16899 | 33091 ft | 461 kts | 70° |
| 2026-04-14 18:55 | 60.71419 | 104.29292 | 33086 ft | 460 kts | 70° |
| 2026-04-14 18:55 | 60.73457 | 104.41701 | 33082 ft | 460 kts | 70° |
| 2026-04-14 18:56 | 60.75485 | 104.54114 | 33088 ft | 461 kts | 70° |
| 2026-04-14 18:56 | 60.77502 | 104.66553 | 33087 ft | 461 kts | 70° |
| 2026-04-14 18:57 | 60.79501 | 104.79018 | 33086 ft | 461 kts | 70° |
| 2026-04-14 18:57 | 60.81491 | 104.91496 | 33098 ft | 461 kts | 71° |
| 2026-04-14 18:58 | 60.83470 | 105.03976 | 33093 ft | 460 kts | 71° |
| 2026-04-14 18:58 | 60.85434 | 105.16479 | 33083 ft | 460 kts | 71° |
| 2026-04-14 18:59 | 60.87379 | 105.28984 | 33086 ft | 460 kts | 71° |
| 2026-04-14 18:59 | 60.89319 | 105.41525 | 33082 ft | 460 kts | 71° |
| 2026-04-14 19:00 | 60.91249 | 105.54069 | 33074 ft | 461 kts | 71° |
| 2026-04-14 19:00 | 60.93165 | 105.66626 | 33074 ft | 460 kts | 71° |
| 2026-04-14 19:01 | 60.95072 | 105.79214 | 33073 ft | 460 kts | 71° |
| 2026-04-14 19:01 | 60.96971 | 105.91790 | 33068 ft | 460 kts | 71° |
| 2026-04-14 19:02 | 60.98850 | 106.04381 | 33072 ft | 460 kts | 72° |
| 2026-04-14 19:02 | 61.00717 | 106.17000 | 33063 ft | 461 kts | 72° |
| 2026-04-14 19:03 | 61.02574 | 106.29642 | 33057 ft | 461 kts | 72° |
| 2026-04-14 19:03 | 61.04421 | 106.42312 | 33056 ft | 461 kts | 72° |
| 2026-04-14 19:04 | 61.06263 | 106.54997 | 33054 ft | 461 kts | 72° |
| 2026-04-14 19:04 | 61.08092 | 106.67698 | 33056 ft | 461 kts | 72° |
| 2026-04-14 19:05 | 61.09903 | 106.80420 | 33061 ft | 462 kts | 73° |
| 2026-04-14 19:05 | 61.11707 | 106.93155 | 33055 ft | 462 kts | 73° |
| 2026-04-14 19:06 | 61.13499 | 107.05930 | 33064 ft | 462 kts | 73° |
| 2026-04-14 19:06 | 61.15281 | 107.18712 | 33053 ft | 462 kts | 73° |
| 2026-04-14 19:07 | 61.17054 | 107.31516 | 33055 ft | 462 kts | 73° |
| 2026-04-14 19:07 | 61.18810 | 107.44339 | 33051 ft | 462 kts | 73° |
| 2026-04-14 19:08 | 61.20560 | 107.57170 | 33049 ft | 462 kts | 73° |
| 2026-04-14 19:08 | 61.22293 | 107.70005 | 33046 ft | 462 kts | 74° |
| 2026-04-14 19:09 | 61.24012 | 107.82871 | 33045 ft | 462 kts | 74° |
| 2026-04-14 19:09 | 61.25724 | 107.95745 | 33041 ft | 462 kts | 74° |
| 2026-04-14 19:10 | 61.27451 | 108.08605 | 33040 ft | 462 kts | 73° |
| 2026-04-14 19:10 | 61.29350 | 108.21374 | 33034 ft | 462 kts | 72° |
| 2026-04-14 19:11 | 61.31300 | 108.34108 | 33029 ft | 462 kts | 72° |
| 2026-04-14 19:11 | 61.33183 | 108.46795 | 33026 ft | 462 kts | 73° |
| 2026-04-14 19:12 | 61.35040 | 108.59589 | 33010 ft | 462 kts | 73° |
| 2026-04-14 19:13 | 61.37801 | 108.78883 | 33000 ft | 462 kts | 73° |
| 2026-04-14 19:13 | 61.39641 | 108.91744 | 32998 ft | 463 kts | 73° |
| 2026-04-14 19:14 | 61.41467 | 109.04643 | 32995 ft | 462 kts | 73° |
| 2026-04-14 19:14 | 61.43285 | 109.17545 | 32978 ft | 462 kts | 73° |
| 2026-04-14 19:15 | 61.45078 | 109.30371 | 32982 ft | 462 kts | 74° |
| 2026-04-14 19:15 | 61.46863 | 109.43317 | 32985 ft | 462 kts | 74° |
| 2026-04-14 19:16 | 61.48630 | 109.56222 | 32980 ft | 463 kts | 74° |
| 2026-04-14 19:16 | 61.50398 | 109.69177 | 32980 ft | 463 kts | 74° |
| 2026-04-14 19:17 | 61.52158 | 109.82157 | 32976 ft | 463 kts | 75° |
| 2026-04-14 19:17 | 61.53909 | 109.95192 | 32975 ft | 463 kts | 75° |
| 2026-04-14 19:18 | 61.55628 | 110.08133 | 32977 ft | 463 kts | 75° |
| 2026-04-14 19:18 | 61.57355 | 110.21204 | 32961 ft | 463 kts | 75° |
| 2026-04-14 19:19 | 61.59049 | 110.34187 | 32962 ft | 463 kts | 75° |
| 2026-04-14 19:19 | 61.60732 | 110.47265 | 32970 ft | 464 kts | 76° |
| 2026-04-14 19:20 | 61.62411 | 110.60404 | 32969 ft | 463 kts | 76° |
| 2026-04-14 19:20 | 61.64088 | 110.73496 | 32969 ft | 463 kts | 76° |
| 2026-04-14 19:21 | 61.65749 | 110.86524 | 32968 ft | 463 kts | 76° |
| 2026-04-14 19:21 | 61.67401 | 110.99673 | 32973 ft | 463 kts | 76° |
| 2026-04-14 19:22 | 61.69021 | 111.12789 | 32965 ft | 463 kts | 76° |
| 2026-04-14 19:22 | 61.70633 | 111.25949 | 32959 ft | 463 kts | 76° |
| 2026-04-14 19:23 | 61.72228 | 111.39003 | 32950 ft | 463 kts | 76° |
| 2026-04-14 19:23 | 61.73816 | 111.52167 | 32950 ft | 463 kts | 76° |
| 2026-04-14 19:24 | 61.75407 | 111.65373 | 32951 ft | 463 kts | 76° |
| 2026-04-14 19:24 | 61.76715 | 111.76353 | 32950 ft | 463 kts | 77° |
| 2026-04-14 19:25 | 61.78522 | 111.91717 | 32936 ft | 463 kts | 77° |
| 2026-04-14 19:25 | 61.79816 | 112.02788 | 32942 ft | 463 kts | 77° |
| 2026-04-14 19:26 | 61.81306 | 112.15977 | 32940 ft | 462 kts | 79° |
| 2026-04-14 19:26 | 61.82530 | 112.29335 | 32923 ft | 462 kts | 81° |
| 2026-04-14 19:27 | 61.83614 | 112.42745 | 32915 ft | 462 kts | 81° |
| 2026-04-14 19:27 | 61.84716 | 112.56129 | 32915 ft | 462 kts | 81° |
| 2026-04-14 19:28 | 61.85857 | 112.69531 | 32913 ft | 462 kts | 81° |
| 2026-04-14 19:29 | 61.88197 | 112.97475 | 32895 ft | 463 kts | 82° |
| 2026-04-14 19:29 | 61.89297 | 113.10935 | 32902 ft | 463 kts | 82° |
| 2026-04-14 19:29 | 61.89845 | 113.17694 | 33057 ft | 464 kts | 82° |
| 2026-04-14 19:30 | 61.90385 | 113.24446 | 33226 ft | 465 kts | 82° |
| 2026-04-14 19:30 | 61.90923 | 113.31214 | 33402 ft | 465 kts | 82° |
| 2026-04-14 19:30 | 61.91463 | 113.37992 | 33568 ft | 465 kts | 82° |
| 2026-04-14 19:30 | 61.91999 | 113.44772 | 33743 ft | 465 kts | 82° |
| 2026-04-14 19:31 | 61.92529 | 113.51547 | 33898 ft | 465 kts | 82° |
| 2026-04-14 19:31 | 61.93057 | 113.58332 | 34020 ft | 465 kts | 82° |
| 2026-04-14 19:31 | 61.93579 | 113.65112 | 34163 ft | 465 kts | 82° |
| 2026-04-14 19:31 | 61.94098 | 113.71900 | 34302 ft | 465 kts | 82° |
| 2026-04-14 19:32 | 61.94607 | 113.78604 | 34431 ft | 465 kts | 82° |
| 2026-04-14 19:32 | 61.95120 | 113.85390 | 34563 ft | 465 kts | 82° |
| 2026-04-14 19:32 | 61.95633 | 113.92186 | 34696 ft | 465 kts | 82° |
| 2026-04-14 19:32 | 61.96141 | 113.98969 | 34835 ft | 464 kts | 82° |
| 2026-04-14 19:33 | 61.96644 | 114.05771 | 34879 ft | 465 kts | 83° |
| 2026-04-14 19:33 | 61.97629 | 114.19287 | 34876 ft | 465 kts | 83° |
| 2026-04-14 19:34 | 61.99100 | 114.39662 | 34881 ft | 465 kts | 83° |
| 2026-04-14 19:34 | 62.00068 | 114.53276 | 34882 ft | 464 kts | 83° |
| 2026-04-14 19:35 | 62.01017 | 114.66875 | 34891 ft | 464 kts | 83° |
| 2026-04-14 19:35 | 62.01946 | 114.80462 | 34904 ft | 465 kts | 83° |
| 2026-04-14 19:36 | 62.02870 | 114.94136 | 34908 ft | 465 kts | 83° |
| 2026-04-14 19:36 | 62.03773 | 115.07776 | 34925 ft | 465 kts | 84° |
| 2026-04-14 19:37 | 62.04659 | 115.21342 | 34922 ft | 465 kts | 84° |
| 2026-04-14 19:37 | 62.05541 | 115.35025 | 34921 ft | 465 kts | 84° |
| 2026-04-14 19:38 | 62.06406 | 115.48686 | 34937 ft | 465 kts | 84° |
| 2026-04-14 19:38 | 62.07257 | 115.62365 | 34944 ft | 465 kts | 84° |
| 2026-04-14 19:39 | 62.08101 | 115.76051 | 34957 ft | 465 kts | 84° |
| 2026-04-14 19:39 | 62.08935 | 115.89742 | 34956 ft | 464 kts | 84° |
| 2026-04-14 19:40 | 62.09748 | 116.03366 | 34964 ft | 464 kts | 85° |
| 2026-04-14 19:40 | 62.10554 | 116.17057 | 34945 ft | 463 kts | 85° |
| 2026-04-14 19:41 | 62.11339 | 116.30623 | 34957 ft | 463 kts | 85° |
| 2026-04-14 19:41 | 62.12110 | 116.44304 | 34970 ft | 462 kts | 85° |
| 2026-04-14 19:42 | 62.12858 | 116.57960 | 34965 ft | 462 kts | 85° |
| 2026-04-14 19:42 | 62.13603 | 116.71629 | 34979 ft | 463 kts | 85° |
| 2026-04-14 19:43 | 62.14342 | 116.85290 | 34992 ft | 463 kts | 85° |
| 2026-04-14 19:43 | 62.15058 | 116.98898 | 34996 ft | 463 kts | 86° |
| 2026-04-14 19:44 | 62.15644 | 117.10382 | 34982 ft | 463 kts | 86° |
| 2026-04-14 19:44 | 62.16343 | 117.24095 | 34990 ft | 463 kts | 86° |
| 2026-04-14 19:45 | 62.17017 | 117.37725 | 34993 ft | 463 kts | 86° |
| 2026-04-14 19:45 | 62.17674 | 117.51451 | 34994 ft | 463 kts | 86° |
| 2026-04-14 19:46 | 62.18323 | 117.65159 | 34997 ft | 463 kts | 86° |
| 2026-04-14 19:46 | 62.18872 | 117.78813 | 34998 ft | 462 kts | 88° |
| 2026-04-14 19:47 | 62.19288 | 117.92565 | 34980 ft | 462 kts | 89° |
| 2026-04-14 19:47 | 62.19682 | 118.06300 | 34984 ft | 462 kts | 89° |
| 2026-04-14 19:48 | 62.20094 | 118.20040 | 34991 ft | 462 kts | 89° |
| 2026-04-14 19:48 | 62.20508 | 118.33695 | 34991 ft | 461 kts | 89° |
| 2026-04-14 19:49 | 62.20909 | 118.47451 | 34993 ft | 461 kts | 89° |
| 2026-04-14 19:49 | 62.21290 | 118.61101 | 34992 ft | 461 kts | 89° |
| 2026-04-14 19:50 | 62.21658 | 118.74841 | 34971 ft | 460 kts | 89° |
| 2026-04-14 19:50 | 62.22014 | 118.88559 | 34986 ft | 460 kts | 89° |
| 2026-04-14 19:51 | 62.22346 | 119.02204 | 34989 ft | 460 kts | 89° |
| 2026-04-14 19:51 | 62.22667 | 119.15938 | 34995 ft | 461 kts | 89° |
| 2026-04-14 19:52 | 62.22993 | 119.29663 | 35001 ft | 461 kts | 89° |
| 2026-04-14 19:52 | 62.23324 | 119.43404 | 35012 ft | 461 kts | 89° |
| 2026-04-14 19:53 | 62.23644 | 119.57061 | 35014 ft | 461 kts | 90° |
| 2026-04-14 19:53 | 62.23940 | 119.70833 | 35015 ft | 461 kts | 90° |
| 2026-04-14 19:54 | 62.24356 | 119.91451 | 35019 ft | 461 kts | 90° |
| 2026-04-14 19:55 | 62.24616 | 120.05194 | 35031 ft | 461 kts | 90° |
| 2026-04-14 19:55 | 62.24861 | 120.18868 | 35032 ft | 461 kts | 90° |
| 2026-04-14 19:56 | 62.25100 | 120.32640 | 35032 ft | 461 kts | 90° |
| 2026-04-14 19:56 | 62.25325 | 120.46389 | 35009 ft | 461 kts | 90° |
| 2026-04-14 19:57 | 62.25532 | 120.60122 | 35024 ft | 460 kts | 91° |
| 2026-04-14 19:57 | 62.25723 | 120.73757 | 35044 ft | 459 kts | 91° |
| 2026-04-14 19:58 | 62.25900 | 120.87480 | 35032 ft | 459 kts | 91° |
| 2026-04-14 19:58 | 62.26064 | 121.01186 | 35034 ft | 459 kts | 91° |
| 2026-04-14 19:59 | 62.26220 | 121.14926 | 35044 ft | 459 kts | 91° |
| 2026-04-14 19:59 | 62.26361 | 121.28640 | 35052 ft | 459 kts | 91° |
| 2026-04-14 20:00 | 62.26494 | 121.42285 | 35033 ft | 459 kts | 91° |
| 2026-04-14 20:00 | 62.26605 | 121.55991 | 35042 ft | 458 kts | 92° |
| 2026-04-14 20:01 | 62.26699 | 121.69683 | 35051 ft | 458 kts | 92° |
| 2026-04-14 20:01 | 62.26786 | 121.83393 | 35049 ft | 458 kts | 92° |
| 2026-04-14 20:02 | 62.26865 | 121.97068 | 35048 ft | 458 kts | 92° |
| 2026-04-14 20:02 | 62.26925 | 122.10647 | 35059 ft | 457 kts | 92° |
| 2026-04-14 20:03 | 62.26963 | 122.24308 | 35042 ft | 457 kts | 92° |
| 2026-04-14 20:03 | 62.26994 | 122.37962 | 35053 ft | 457 kts | 92° |
| 2026-04-14 20:04 | 62.27019 | 122.51615 | 35059 ft | 457 kts | 92° |
| 2026-04-14 20:04 | 62.27029 | 122.65278 | 35067 ft | 457 kts | 92° |
| 2026-04-14 20:05 | 62.27022 | 122.78867 | 35069 ft | 456 kts | 93° |
| 2026-04-14 20:05 | 62.26989 | 122.92473 | 35067 ft | 456 kts | 93° |
| 2026-04-14 20:06 | 62.26955 | 123.06104 | 35039 ft | 456 kts | 93° |
| 2026-04-14 20:06 | 62.26914 | 123.19643 | 35047 ft | 455 kts | 93° |
| 2026-04-14 20:07 | 62.26850 | 123.33243 | 35058 ft | 455 kts | 93° |
| 2026-04-14 20:07 | 62.26770 | 123.46816 | 35064 ft | 454 kts | 93° |
| 2026-04-14 20:08 | 62.26688 | 123.60402 | 35072 ft | 454 kts | 94° |
| 2026-04-14 20:08 | 62.26587 | 123.73884 | 35081 ft | 454 kts | 94° |
| 2026-04-14 20:09 | 62.26472 | 123.87445 | 35077 ft | 454 kts | 94° |
| 2026-04-14 20:09 | 62.26350 | 124.01052 | 35060 ft | 454 kts | 94° |
| 2026-04-14 20:10 | 62.26218 | 124.14618 | 35067 ft | 454 kts | 94° |
| 2026-04-14 20:10 | 62.26070 | 124.28076 | 35079 ft | 454 kts | 94° |
| 2026-04-14 20:11 | 62.25904 | 124.41655 | 35081 ft | 454 kts | 94° |
| 2026-04-14 20:11 | 62.25729 | 124.55145 | 35078 ft | 454 kts | 95° |
| 2026-04-14 20:12 | 62.25539 | 124.68675 | 35081 ft | 453 kts | 95° |
| 2026-04-14 20:12 | 62.25337 | 124.82212 | 35069 ft | 453 kts | 95° |
| 2026-04-14 20:13 | 62.25132 | 124.95738 | 35075 ft | 453 kts | 95° |
| 2026-04-14 20:13 | 62.24904 | 125.09245 | 35086 ft | 452 kts | 95° |
| 2026-04-14 20:14 | 62.24650 | 125.22646 | 35083 ft | 452 kts | 95° |
| 2026-04-14 20:14 | 62.24393 | 125.36136 | 35092 ft | 452 kts | 95° |
| 2026-04-14 20:15 | 62.24131 | 125.49647 | 35094 ft | 452 kts | 95° |
| 2026-04-14 20:15 | 62.23853 | 125.63128 | 35090 ft | 452 kts | 96° |
| 2026-04-14 20:16 | 62.23566 | 125.76543 | 35086 ft | 452 kts | 96° |
| 2026-04-14 20:16 | 62.23258 | 125.90028 | 35088 ft | 452 kts | 96° |
| 2026-04-14 20:17 | 62.22932 | 126.03501 | 35084 ft | 451 kts | 96° |
| 2026-04-14 20:17 | 62.22604 | 126.16861 | 35088 ft | 451 kts | 96° |
| 2026-04-14 20:18 | 62.22261 | 126.30301 | 35090 ft | 451 kts | 96° |
| 2026-04-14 20:18 | 62.21904 | 126.43756 | 35101 ft | 451 kts | 97° |
| 2026-04-14 20:19 | 62.21529 | 126.57136 | 35085 ft | 451 kts | 97° |
| 2026-04-14 20:19 | 62.21150 | 126.70564 | 35061 ft | 451 kts | 97° |
| 2026-04-14 20:19 | 62.20955 | 126.77326 | 34497 ft | 452 kts | 97° |
| 2026-04-14 20:20 | 62.20754 | 126.84023 | 34049 ft | 449 kts | 97° |
| 2026-04-14 20:20 | 62.20548 | 126.90700 | 33347 ft | 448 kts | 97° |
| 2026-04-14 20:20 | 62.20386 | 126.97373 | 32667 ft | 449 kts | 95° |
| 2026-04-14 20:20 | 62.20291 | 127.03984 | 31952 ft | 450 kts | 94° |
| 2026-04-14 20:21 | 62.20236 | 127.10699 | 31171 ft | 450 kts | 94° |
| 2026-04-14 20:21 | 62.20195 | 127.17408 | 30411 ft | 449 kts | 94° |
| 2026-04-14 20:21 | 62.20147 | 127.24096 | 29548 ft | 448 kts | 95° |
| 2026-04-14 20:21 | 62.20082 | 127.30795 | 28665 ft | 449 kts | 95° |
| 2026-04-14 20:22 | 62.19997 | 127.37515 | 27783 ft | 451 kts | 95° |
| 2026-04-14 20:22 | 62.19898 | 127.44183 | 26960 ft | 453 kts | 95° |
| 2026-04-14 20:22 | 62.19789 | 127.50968 | 26154 ft | 456 kts | 95° |
| 2026-04-14 20:22 | 62.19676 | 127.57773 | 25372 ft | 458 kts | 95° |
| 2026-04-14 20:23 | 62.19562 | 127.64620 | 24608 ft | 461 kts | 94° |
| 2026-04-14 20:23 | 62.19448 | 127.71437 | 23875 ft | 461 kts | 94° |
| 2026-04-14 20:23 | 62.19334 | 127.78263 | 23046 ft | 458 kts | 94° |
| 2026-04-14 20:23 | 62.19219 | 127.85057 | 22186 ft | 454 kts | 94° |
| 2026-04-14 20:24 | 62.19103 | 127.91807 | 21353 ft | 450 kts | 94° |
| 2026-04-14 20:24 | 62.18984 | 127.98477 | 20541 ft | 446 kts | 94° |
| 2026-04-14 20:24 | 62.18864 | 128.05100 | 19749 ft | 442 kts | 94° |
| 2026-04-14 20:24 | 62.18740 | 128.11664 | 18972 ft | 438 kts | 94° |
| 2026-04-14 20:25 | 62.18613 | 128.18152 | 18206 ft | 434 kts | 94° |
| 2026-04-14 20:25 | 62.18484 | 128.24517 | 17359 ft | 431 kts | 94° |
| 2026-04-14 20:25 | 62.18350 | 128.30893 | 16527 ft | 426 kts | 93° |
| 2026-04-14 20:25 | 62.18261 | 128.35157 | 15974 ft | 423 kts | 93° |
| 2026-04-14 20:26 | 62.18085 | 128.43448 | 14917 ft | 417 kts | 93° |
| 2026-04-14 20:26 | 62.17950 | 128.49626 | 14134 ft | 412 kts | 93° |
| 2026-04-14 20:26 | 62.17814 | 128.55716 | 13327 ft | 406 kts | 93° |
| 2026-04-14 20:26 | 62.17722 | 128.59707 | 12790 ft | 403 kts | 94° |
| 2026-04-14 20:27 | 62.17577 | 128.65687 | 12138 ft | 398 kts | 94° |
| 2026-04-14 20:27 | 62.17433 | 128.71573 | 11622 ft | 392 kts | 94° |
| 2026-04-14 20:27 | 62.17329 | 128.77311 | 11213 ft | 373 kts | 89° |
| 2026-04-14 20:27 | 62.17604 | 128.82625 | 11072 ft | 345 kts | 78° |
| 2026-04-14 20:28 | 62.18244 | 128.87323 | 10943 ft | 321 kts | 68° |
| 2026-04-14 20:28 | 62.19140 | 128.91532 | 10707 ft | 303 kts | 64° |
| 2026-04-14 20:28 | 62.20047 | 128.95543 | 10346 ft | 295 kts | 64° |
| 2026-04-14 20:28 | 62.20937 | 128.99495 | 10093 ft | 294 kts | 64° |
| 2026-04-14 20:29 | 62.21825 | 129.03426 | 9902 ft | 293 kts | 64° |
| 2026-04-14 20:29 | 62.22711 | 129.07360 | 9765 ft | 292 kts | 64° |
| 2026-04-14 20:29 | 62.23591 | 129.11281 | 9616 ft | 291 kts | 64° |
| 2026-04-14 20:29 | 62.24469 | 129.15206 | 9477 ft | 290 kts | 64° |
| 2026-04-14 20:30 | 62.25341 | 129.19119 | 9330 ft | 290 kts | 64° |
| 2026-04-14 20:30 | 62.26209 | 129.23012 | 9186 ft | 289 kts | 64° |
| 2026-04-14 20:30 | 62.27063 | 129.26853 | 9052 ft | 288 kts | 64° |
| 2026-04-14 20:30 | 62.27926 | 129.30744 | 8781 ft | 286 kts | 64° |
| 2026-04-14 20:31 | 62.28775 | 129.34584 | 8417 ft | 283 kts | 64° |
| 2026-04-14 20:31 | 62.29591 | 129.38414 | 8043 ft | 281 kts | 69° |
| 2026-04-14 20:31 | 62.30055 | 129.42461 | 7669 ft | 279 kts | 83° |
| 2026-04-14 20:31 | 62.30104 | 129.46612 | 7314 ft | 278 kts | 90° |
| 2026-04-14 20:32 | 62.30083 | 129.50753 | 6946 ft | 277 kts | 90° |
| 2026-04-14 20:32 | 62.30068 | 129.54886 | 6577 ft | 275 kts | 90° |
| 2026-04-14 20:32 | 62.30053 | 129.58997 | 6211 ft | 274 kts | 89° |
| 2026-04-14 20:32 | 62.30039 | 129.63070 | 5846 ft | 271 kts | 89° |
| 2026-04-14 20:33 | 62.30022 | 129.67088 | 5493 ft | 266 kts | 89° |
| 2026-04-14 20:33 | 62.30002 | 129.71042 | 5140 ft | 261 kts | 89° |
| 2026-04-14 20:33 | 62.29981 | 129.74871 | 4781 ft | 252 kts | 89° |
| 2026-04-14 20:34 | 62.29513 | 129.81951 | 4147 ft | 235 kts | 115° |
| 2026-04-14 20:34 | 62.28578 | 129.84712 | 3827 ft | 225 kts | 137° |
| 2026-04-14 20:34 | 62.27301 | 129.86582 | 3521 ft | 220 kts | 154° |
| 2026-04-14 20:34 | 62.25935 | 129.88045 | 3224 ft | 218 kts | 154° |
| 2026-04-14 20:35 | 62.24588 | 129.89490 | 2948 ft | 213 kts | 154° |
| 2026-04-14 20:35 | 62.23282 | 129.90893 | 2652 ft | 206 kts | 154° |
| 2026-04-14 20:35 | 62.22037 | 129.92228 | 2360 ft | 200 kts | 154° |
| 2026-04-14 20:35 | 62.20740 | 129.93218 | 2090 ft | 192 kts | 174° |
| 2026-04-14 20:36 | 62.19482 | 129.93081 | 2001 ft | 175 kts | 198° |
| 2026-04-14 20:36 | 62.18417 | 129.92083 | 2006 ft | 163 kts | 219° |
| 2026-04-14 20:36 | 62.17518 | 129.90671 | 2005 ft | 159 kts | 221° |
| 2026-04-14 20:36 | 62.16637 | 129.89248 | 1906 ft | 158 kts | 221° |
| 2026-04-14 20:37 | 62.15777 | 129.87863 | 1700 ft | 150 kts | 221° |
| 2026-04-14 20:37 | 62.14958 | 129.86542 | 1487 ft | 145 kts | 221° |
| 2026-04-14 20:37 | 62.14171 | 129.85251 | 1263 ft | 142 kts | 219° |
| 2026-04-14 20:37 | 62.13391 | 129.83978 | 1054 ft | 140 kts | 219° |
| 2026-04-14 20:38 | 62.12619 | 129.82739 | 852 ft | 138 kts | 218° |
| 2026-04-14 20:38 | 62.11855 | 129.81515 | 665 ft | 137 kts | 217° |
| 2026-04-14 20:38 | 62.11093 | 129.80298 | 481 ft | 137 kts | 218° |
| 2026-04-14 20:38 | 62.10334 | 129.79101 | 331 ft | 133 kts | 217° |
| 2026-04-14 20:39 | 62.09672 | 129.78044 | 324 ft | 96 kts | 217° |
| 2026-04-14 20:39 | 62.09278 | 129.77415 | 328 ft | 47 kts | 217° |
| 2026-04-14 20:39 | 62.09099 | 129.77127 | 327 ft | 25 kts | 217° |
| 2026-04-14 20:39 | 62.08967 | 129.76915 | 329 ft | 23 kts | 217° |
| 2026-04-14 20:40 | 62.08840 | 129.76711 | 330 ft | 23 kts | 217° |
| 2026-04-14 20:40 | 62.08713 | 129.76507 | 331 ft | 23 kts | 217° |
| 2026-04-14 20:40 | 62.08595 | 129.76314 | 331 ft | 21 kts | 216° |
| 2026-04-14 20:40 | 62.08520 | 129.76180 | 333 ft | 9 kts | 244° |
| 2026-04-14 20:41 | 62.08536 | 129.76051 | 331 ft | 10 kts | 304° |
| 2026-04-14 20:41 | 62.08581 | 129.75922 | 329 ft | 11 kts | 306° |
| 2026-04-14 20:41 | 62.08625 | 129.75793 | 329 ft | 11 kts | 306° |
| 2026-04-14 20:41 | 62.08661 | 129.75663 | 331 ft | 10 kts | 298° |
| 2026-04-14 20:42 | 62.08691 | 129.75539 | 330 ft | 9 kts | 293° |
| 2026-04-14 20:42 | 62.08689 | 129.75415 | 327 ft | 8 kts | 252° |
| 2026-04-14 20:42 | 62.08629 | 129.75295 | 331 ft | 4 kts | 251° |
| 2026-04-14 20:43 | 62.08627 | 129.75244 | 329 ft | 3 kts | 268° |
| 2026-04-14 20:43 | 62.08626 | 129.75206 | 331 ft | 2 kts | 269° |
| 2026-04-14 20:43 | 62.08626 | 129.75183 | 330 ft | 1 kts | 269° |
| 2026-04-14 20:43 | 62.08626 | 129.75175 | 330 ft | 0 kts | 269° |